sensor_id;sensor_type;location;lat;lon;timestamp;P1;durP1;ratioP1;P2;durP2;ratioP2
57295;SDS011;43146;50.976;18.216;2022-12-18T00:01:24;58.30;;;27.10;;
57295;SDS011;43146;50.976;18.216;2022-12-18T00:03:56;39.90;;;13.60;;
57295;SDS011;43146;50.976;18.216;2022-12-18T00:06:23;47.10;;;14.90;;
57295;SDS011;43146;50.976;18.216;2022-12-18T00:08:53;44.10;;;13.20;;
57295;SDS011;43146;50.976;18.216;2022-12-18T00:11:20;47.80;;;17.80;;
57295;SDS011;43146;50.976;18.216;2022-12-18T00:13:47;38.00;;;12.90;;
57295;SDS011;43146;50.976;18.216;2022-12-18T00:16:17;53.20;;;16.60;;
57295;SDS011;43146;50.976;18.216;2022-12-18T00:18:45;43.90;;;15.20;;
57295;SDS011;43146;50.976;18.216;2022-12-18T00:21:12;35.50;;;13.00;;
57295;SDS011;43146;50.976;18.216;2022-12-18T00:23:39;58.60;;;23.40;;
57295;SDS011;43146;50.976;18.216;2022-12-18T00:26:13;49.50;;;13.00;;
57295;SDS011;43146;50.976;18.216;2022-12-18T00:31:07;35.90;;;15.30;;
57295;SDS011;43146;50.976;18.216;2022-12-18T00:33:35;44.70;;;12.60;;
57295;SDS011;43146;50.976;18.216;2022-12-18T00:36:05;65.90;;;18.30;;
57295;SDS011;43146;50.976;18.216;2022-12-18T00:38:36;32.20;;;11.90;;
57295;SDS011;43146;50.976;18.216;2022-12-18T00:41:02;38.30;;;13.60;;
57295;SDS011;43146;50.976;18.216;2022-12-18T00:43:29;29.40;;;9.90;;
57295;SDS011;43146;50.976;18.216;2022-12-18T00:45:54;34.30;;;13.00;;
57295;SDS011;43146;50.976;18.216;2022-12-18T00:48:20;32.80;;;12.60;;
57295;SDS011;43146;50.976;18.216;2022-12-18T00:50:47;46.30;;;13.60;;
57295;SDS011;43146;50.976;18.216;2022-12-18T00:53:13;58.10;;;20.30;;
57295;SDS011;43146;50.976;18.216;2022-12-18T00:55:39;40.10;;;15.20;;
57295;SDS011;43146;50.976;18.216;2022-12-18T00:58:05;36.40;;;14.00;;
57295;SDS011;43146;50.976;18.216;2022-12-18T01:00:30;49.30;;;15.00;;
57295;SDS011;43146;50.976;18.216;2022-12-18T01:02:56;38.50;;;11.20;;
57295;SDS011;43146;50.976;18.216;2022-12-18T01:05:21;56.20;;;17.20;;
57295;SDS011;43146;50.976;18.216;2022-12-18T01:07:47;36.40;;;13.00;;
57295;SDS011;43146;50.976;18.216;2022-12-18T01:10:13;49.40;;;15.30;;
57295;SDS011;43146;50.976;18.216;2022-12-18T01:12:39;39.60;;;13.30;;
57295;SDS011;43146;50.976;18.216;2022-12-18T01:15:05;28.50;;;9.30;;
57295;SDS011;43146;50.976;18.216;2022-12-18T01:17:31;49.80;;;18.20;;
57295;SDS011;43146;50.976;18.216;2022-12-18T01:19:57;32.60;;;11.30;;
57295;SDS011;43146;50.976;18.216;2022-12-18T01:22:23;31.30;;;9.80;;
57295;SDS011;43146;50.976;18.216;2022-12-18T01:24:49;32.60;;;9.40;;
57295;SDS011;43146;50.976;18.216;2022-12-18T01:27:15;33.10;;;11.10;;
57295;SDS011;43146;50.976;18.216;2022-12-18T01:29:40;34.10;;;12.40;;
57295;SDS011;43146;50.976;18.216;2022-12-18T01:32:06;42.50;;;15.00;;
57295;SDS011;43146;50.976;18.216;2022-12-18T01:34:32;33.00;;;11.40;;
57295;SDS011;43146;50.976;18.216;2022-12-18T01:37:01;44.30;;;13.20;;
57295;SDS011;43146;50.976;18.216;2022-12-18T01:39:28;49.90;;;14.00;;
57295;SDS011;43146;50.976;18.216;2022-12-18T01:41:54;39.60;;;12.70;;
57295;SDS011;43146;50.976;18.216;2022-12-18T01:44:53;39.70;;;12.40;;
57295;SDS011;43146;50.976;18.216;2022-12-18T01:50:40;23.10;;;9.40;;
57295;SDS011;43146;50.976;18.216;2022-12-18T01:53:10;46.80;;;15.00;;
57295;SDS011;43146;50.976;18.216;2022-12-18T01:55:39;47.70;;;13.70;;
57295;SDS011;43146;50.976;18.216;2022-12-18T01:58:07;38.00;;;12.90;;
57295;SDS011;43146;50.976;18.216;2022-12-18T02:00:33;35.60;;;9.70;;
57295;SDS011;43146;50.976;18.216;2022-12-18T02:02:59;45.10;;;14.30;;
57295;SDS011;43146;50.976;18.216;2022-12-18T02:08:19;36.60;;;10.70;;
57295;SDS011;43146;50.976;18.216;2022-12-18T02:11:07;35.00;;;10.30;;
57295;SDS011;43146;50.976;18.216;2022-12-18T02:21:54;33.20;;;10.10;;
57295;SDS011;43146;50.976;18.216;2022-12-18T02:24:43;44.00;;;13.20;;
57295;SDS011;43146;50.976;18.216;2022-12-18T02:27:19;45.50;;;13.60;;
57295;SDS011;43146;50.976;18.216;2022-12-18T02:29:52;43.60;;;14.70;;
57295;SDS011;43146;50.976;18.216;2022-12-18T02:32:26;59.30;;;21.90;;
57295;SDS011;43146;50.976;18.216;2022-12-18T02:34:54;45.10;;;11.50;;
57295;SDS011;43146;50.976;18.216;2022-12-18T02:37:22;25.60;;;8.80;;
57295;SDS011;43146;50.976;18.216;2022-12-18T02:39:48;41.00;;;11.90;;
57295;SDS011;43146;50.976;18.216;2022-12-18T02:42:14;40.90;;;14.70;;
57295;SDS011;43146;50.976;18.216;2022-12-18T02:44:42;50.30;;;13.00;;
57295;SDS011;43146;50.976;18.216;2022-12-18T02:47:10;38.50;;;11.90;;
57295;SDS011;43146;50.976;18.216;2022-12-18T02:52:33;42.10;;;12.90;;
57295;SDS011;43146;50.976;18.216;2022-12-18T03:00:19;36.70;;;10.90;;
57295;SDS011;43146;50.976;18.216;2022-12-18T03:02:56;34.40;;;15.00;;
57295;SDS011;43146;50.976;18.216;2022-12-18T03:05:31;35.50;;;10.90;;
57295;SDS011;43146;50.976;18.216;2022-12-18T03:08:05;35.80;;;11.80;;
57295;SDS011;43146;50.976;18.216;2022-12-18T03:11:05;39.00;;;11.50;;
57295;SDS011;43146;50.976;18.216;2022-12-18T03:16:20;36.70;;;10.50;;
57295;SDS011;43146;50.976;18.216;2022-12-18T03:18:49;28.40;;;8.80;;
57295;SDS011;43146;50.976;18.216;2022-12-18T03:21:21;39.10;;;11.90;;
57295;SDS011;43146;50.976;18.216;2022-12-18T03:23:49;39.20;;;12.30;;
57295;SDS011;43146;50.976;18.216;2022-12-18T03:26:17;76.40;;;22.00;;
57295;SDS011;43146;50.976;18.216;2022-12-18T03:28:46;43.90;;;13.20;;
57295;SDS011;43146;50.976;18.216;2022-12-18T03:31:15;82.70;;;24.40;;
57295;SDS011;43146;50.976;18.216;2022-12-18T03:36:11;90.00;;;27.20;;
57295;SDS011;43146;50.976;18.216;2022-12-18T03:38:37;44.70;;;12.10;;
57295;SDS011;43146;50.976;18.216;2022-12-18T03:41:06;94.20;;;26.60;;
57295;SDS011;43146;50.976;18.216;2022-12-18T03:46:08;25.40;;;7.80;;
57295;SDS011;43146;50.976;18.216;2022-12-18T03:48:44;42.20;;;10.80;;
57295;SDS011;43146;50.976;18.216;2022-12-18T03:51:18;32.90;;;9.30;;
57295;SDS011;43146;50.976;18.216;2022-12-18T03:53:58;22.80;;;6.50;;
57295;SDS011;43146;50.976;18.216;2022-12-18T03:56:26;37.90;;;10.30;;
57295;SDS011;43146;50.976;18.216;2022-12-18T03:58:57;35.50;;;10.80;;
57295;SDS011;43146;50.976;18.216;2022-12-18T04:01:27;31.70;;;8.50;;
57295;SDS011;43146;50.976;18.216;2022-12-18T04:03:56;38.90;;;10.10;;
57295;SDS011;43146;50.976;18.216;2022-12-18T04:06:23;76.00;;;22.50;;
57295;SDS011;43146;50.976;18.216;2022-12-18T04:08:49;72.70;;;21.10;;
57295;SDS011;43146;50.976;18.216;2022-12-18T04:11:22;73.70;;;21.30;;
57295;SDS011;43146;50.976;18.216;2022-12-18T04:13:48;65.30;;;18.90;;
57295;SDS011;43146;50.976;18.216;2022-12-18T04:16:16;34.60;;;11.00;;
57295;SDS011;43146;50.976;18.216;2022-12-18T04:18:44;31.50;;;10.20;;
57295;SDS011;43146;50.976;18.216;2022-12-18T04:21:10;35.50;;;9.90;;
57295;SDS011;43146;50.976;18.216;2022-12-18T04:23:35;32.00;;;9.60;;
57295;SDS011;43146;50.976;18.216;2022-12-18T04:26:02;36.20;;;10.60;;
57295;SDS011;43146;50.976;18.216;2022-12-18T04:28:27;40.10;;;12.40;;
57295;SDS011;43146;50.976;18.216;2022-12-18T04:30:53;35.10;;;11.00;;
57295;SDS011;43146;50.976;18.216;2022-12-18T04:33:18;32.20;;;9.10;;
57295;SDS011;43146;50.976;18.216;2022-12-18T04:35:44;40.60;;;11.30;;
57295;SDS011;43146;50.976;18.216;2022-12-18T04:38:10;61.90;;;12.50;;
57295;SDS011;43146;50.976;18.216;2022-12-18T04:40:36;36.60;;;11.60;;
57295;SDS011;43146;50.976;18.216;2022-12-18T04:43:02;37.20;;;11.90;;
57295;SDS011;43146;50.976;18.216;2022-12-18T04:45:29;54.30;;;16.30;;
57295;SDS011;43146;50.976;18.216;2022-12-18T04:47:56;43.10;;;13.00;;
57295;SDS011;43146;50.976;18.216;2022-12-18T04:50:26;31.50;;;8.60;;
57295;SDS011;43146;50.976;18.216;2022-12-18T04:52:51;30.10;;;9.60;;
57295;SDS011;43146;50.976;18.216;2022-12-18T04:55:18;32.90;;;11.00;;
57295;SDS011;43146;50.976;18.216;2022-12-18T04:57:43;31.50;;;9.30;;
57295;SDS011;43146;50.976;18.216;2022-12-18T05:00:09;32.30;;;10.40;;
57295;SDS011;43146;50.976;18.216;2022-12-18T05:02:36;30.10;;;8.10;;
57295;SDS011;43146;50.976;18.216;2022-12-18T05:05:04;40.70;;;10.90;;
57295;SDS011;43146;50.976;18.216;2022-12-18T05:07:30;18.20;;;6.80;;
57295;SDS011;43146;50.976;18.216;2022-12-18T05:09:56;35.90;;;10.30;;
57295;SDS011;43146;50.976;18.216;2022-12-18T05:12:22;25.60;;;8.00;;
57295;SDS011;43146;50.976;18.216;2022-12-18T05:14:49;34.50;;;9.90;;
57295;SDS011;43146;50.976;18.216;2022-12-18T05:17:14;30.80;;;10.80;;
57295;SDS011;43146;50.976;18.216;2022-12-18T05:19:40;34.20;;;10.70;;
57295;SDS011;43146;50.976;18.216;2022-12-18T05:22:05;42.40;;;11.30;;
57295;SDS011;43146;50.976;18.216;2022-12-18T05:24:32;45.90;;;14.70;;
57295;SDS011;43146;50.976;18.216;2022-12-18T05:26:58;34.50;;;11.70;;
57295;SDS011;43146;50.976;18.216;2022-12-18T05:29:23;34.40;;;10.30;;
57295;SDS011;43146;50.976;18.216;2022-12-18T05:31:49;34.10;;;9.10;;
57295;SDS011;43146;50.976;18.216;2022-12-18T05:34:15;39.80;;;11.00;;
57295;SDS011;43146;50.976;18.216;2022-12-18T05:36:42;47.10;;;14.80;;
57295;SDS011;43146;50.976;18.216;2022-12-18T05:39:07;66.40;;;24.30;;
57295;SDS011;43146;50.976;18.216;2022-12-18T05:41:35;60.00;;;18.90;;
57295;SDS011;43146;50.976;18.216;2022-12-18T05:44:00;70.70;;;20.80;;
57295;SDS011;43146;50.976;18.216;2022-12-18T05:46:26;92.80;;;29.00;;
57295;SDS011;43146;50.976;18.216;2022-12-18T05:48:52;51.00;;;13.70;;
57295;SDS011;43146;50.976;18.216;2022-12-18T05:51:19;45.40;;;13.80;;
57295;SDS011;43146;50.976;18.216;2022-12-18T05:53:46;42.10;;;14.00;;
57295;SDS011;43146;50.976;18.216;2022-12-18T05:56:17;48.90;;;15.10;;
57295;SDS011;43146;50.976;18.216;2022-12-18T06:01:13;41.20;;;13.80;;
57295;SDS011;43146;50.976;18.216;2022-12-18T06:03:40;37.20;;;12.40;;
57295;SDS011;43146;50.976;18.216;2022-12-18T06:06:13;39.10;;;12.10;;
57295;SDS011;43146;50.976;18.216;2022-12-18T06:08:40;27.90;;;8.50;;
57295;SDS011;43146;50.976;18.216;2022-12-18T06:11:05;38.90;;;12.50;;
57295;SDS011;43146;50.976;18.216;2022-12-18T06:13:31;26.50;;;8.40;;
57295;SDS011;43146;50.976;18.216;2022-12-18T06:15:56;42.00;;;12.20;;
57295;SDS011;43146;50.976;18.216;2022-12-18T06:18:22;43.10;;;12.60;;
57295;SDS011;43146;50.976;18.216;2022-12-18T06:20:57;42.40;;;13.10;;
57295;SDS011;43146;50.976;18.216;2022-12-18T06:23:23;46.60;;;12.80;;
57295;SDS011;43146;50.976;18.216;2022-12-18T06:25:49;38.20;;;10.90;;
57295;SDS011;43146;50.976;18.216;2022-12-18T06:28:15;44.90;;;14.00;;
57295;SDS011;43146;50.976;18.216;2022-12-18T06:30:44;44.80;;;14.60;;
57295;SDS011;43146;50.976;18.216;2022-12-18T06:33:13;34.60;;;11.80;;
57295;SDS011;43146;50.976;18.216;2022-12-18T06:35:40;53.50;;;17.70;;
57295;SDS011;43146;50.976;18.216;2022-12-18T06:38:06;38.40;;;12.90;;
57295;SDS011;43146;50.976;18.216;2022-12-18T06:40:32;79.00;;;28.30;;
57295;SDS011;43146;50.976;18.216;2022-12-18T06:42:57;34.80;;;10.90;;
57295;SDS011;43146;50.976;18.216;2022-12-18T06:45:23;41.60;;;15.40;;
57295;SDS011;43146;50.976;18.216;2022-12-18T06:47:49;38.10;;;12.70;;
57295;SDS011;43146;50.976;18.216;2022-12-18T06:50:15;49.20;;;16.20;;
57295;SDS011;43146;50.976;18.216;2022-12-18T06:52:41;55.90;;;17.60;;
57295;SDS011;43146;50.976;18.216;2022-12-18T06:55:09;43.90;;;14.10;;
57295;SDS011;43146;50.976;18.216;2022-12-18T06:57:35;42.20;;;12.60;;
57295;SDS011;43146;50.976;18.216;2022-12-18T07:00:02;45.40;;;15.50;;
57295;SDS011;43146;50.976;18.216;2022-12-18T07:02:29;60.10;;;22.10;;
57295;SDS011;43146;50.976;18.216;2022-12-18T07:04:54;94.30;;;34.60;;
57295;SDS011;43146;50.976;18.216;2022-12-18T07:07:20;100.80;;;36.10;;
57295;SDS011;43146;50.976;18.216;2022-12-18T07:09:45;58.90;;;17.30;;
57295;SDS011;43146;50.976;18.216;2022-12-18T07:12:11;63.30;;;22.90;;
57295;SDS011;43146;50.976;18.216;2022-12-18T07:14:36;44.70;;;14.90;;
57295;SDS011;43146;50.976;18.216;2022-12-18T07:17:02;36.20;;;11.00;;
57295;SDS011;43146;50.976;18.216;2022-12-18T07:19:27;47.70;;;14.70;;
57295;SDS011;43146;50.976;18.216;2022-12-18T07:21:54;53.10;;;19.70;;
57295;SDS011;43146;50.976;18.216;2022-12-18T07:24:19;55.90;;;20.60;;
57295;SDS011;43146;50.976;18.216;2022-12-18T07:26:45;54.60;;;21.80;;
57295;SDS011;43146;50.976;18.216;2022-12-18T07:29:11;56.10;;;20.50;;
57295;SDS011;43146;50.976;18.216;2022-12-18T07:31:37;53.80;;;15.40;;
57295;SDS011;43146;50.976;18.216;2022-12-18T07:34:03;51.70;;;15.10;;
57295;SDS011;43146;50.976;18.216;2022-12-18T07:36:29;62.00;;;16.70;;
57295;SDS011;43146;50.976;18.216;2022-12-18T07:38:54;38.40;;;10.10;;
57295;SDS011;43146;50.976;18.216;2022-12-18T07:41:21;53.20;;;15.70;;
57295;SDS011;43146;50.976;18.216;2022-12-18T07:43:47;55.80;;;19.40;;
57295;SDS011;43146;50.976;18.216;2022-12-18T07:46:13;54.00;;;17.60;;
57295;SDS011;43146;50.976;18.216;2022-12-18T07:48:40;52.90;;;17.20;;
57295;SDS011;43146;50.976;18.216;2022-12-18T07:51:07;51.90;;;18.50;;
57295;SDS011;43146;50.976;18.216;2022-12-18T07:53:33;48.80;;;16.90;;
57295;SDS011;43146;50.976;18.216;2022-12-18T07:56:01;54.00;;;14.40;;
57295;SDS011;43146;50.976;18.216;2022-12-18T07:58:29;20.90;;;8.00;;
57295;SDS011;43146;50.976;18.216;2022-12-18T08:01:02;48.30;;;14.40;;
57295;SDS011;43146;50.976;18.216;2022-12-18T08:03:35;42.80;;;11.60;;
57295;SDS011;43146;50.976;18.216;2022-12-18T08:06:02;42.60;;;13.00;;
57295;SDS011;43146;50.976;18.216;2022-12-18T08:08:29;46.60;;;14.50;;
57295;SDS011;43146;50.976;18.216;2022-12-18T08:10:55;46.60;;;16.50;;
57295;SDS011;43146;50.976;18.216;2022-12-18T08:13:23;52.60;;;17.30;;
57295;SDS011;43146;50.976;18.216;2022-12-18T08:15:56;54.80;;;18.30;;
57295;SDS011;43146;50.976;18.216;2022-12-18T08:18:23;42.40;;;13.50;;
57295;SDS011;43146;50.976;18.216;2022-12-18T08:20:50;37.40;;;12.90;;
57295;SDS011;43146;50.976;18.216;2022-12-18T08:23:16;45.50;;;13.50;;
57295;SDS011;43146;50.976;18.216;2022-12-18T08:25:42;45.50;;;15.00;;
57295;SDS011;43146;50.976;18.216;2022-12-18T08:28:07;44.70;;;12.70;;
57295;SDS011;43146;50.976;18.216;2022-12-18T08:30:33;46.40;;;14.00;;
57295;SDS011;43146;50.976;18.216;2022-12-18T08:32:58;46.20;;;13.90;;
57295;SDS011;43146;50.976;18.216;2022-12-18T08:35:24;24.60;;;9.30;;
57295;SDS011;43146;50.976;18.216;2022-12-18T08:37:53;44.80;;;14.30;;
57295;SDS011;43146;50.976;18.216;2022-12-18T08:40:18;43.80;;;13.60;;
57295;SDS011;43146;50.976;18.216;2022-12-18T08:42:44;48.20;;;16.60;;
57295;SDS011;43146;50.976;18.216;2022-12-18T08:45:28;60.20;;;21.00;;
57295;SDS011;43146;50.976;18.216;2022-12-18T08:47:53;50.40;;;19.00;;
57295;SDS011;43146;50.976;18.216;2022-12-18T08:50:19;81.30;;;26.50;;
57295;SDS011;43146;50.976;18.216;2022-12-18T08:52:45;219.70;;;69.70;;
57295;SDS011;43146;50.976;18.216;2022-12-18T08:55:10;141.90;;;54.20;;
57295;SDS011;43146;50.976;18.216;2022-12-18T08:57:36;69.70;;;27.80;;
57295;SDS011;43146;50.976;18.216;2022-12-18T09:00:02;58.60;;;23.30;;
57295;SDS011;43146;50.976;18.216;2022-12-18T09:02:29;55.80;;;21.60;;
57295;SDS011;43146;50.976;18.216;2022-12-18T09:04:54;50.50;;;19.10;;
57295;SDS011;43146;50.976;18.216;2022-12-18T09:07:20;53.50;;;21.30;;
57295;SDS011;43146;50.976;18.216;2022-12-18T09:09:45;43.60;;;15.50;;
57295;SDS011;43146;50.976;18.216;2022-12-18T09:12:11;51.40;;;15.30;;
57295;SDS011;43146;50.976;18.216;2022-12-18T09:14:39;50.90;;;17.20;;
57295;SDS011;43146;50.976;18.216;2022-12-18T09:17:05;55.50;;;18.30;;
57295;SDS011;43146;50.976;18.216;2022-12-18T09:19:30;49.20;;;16.20;;
57295;SDS011;43146;50.976;18.216;2022-12-18T09:21:56;42.40;;;13.80;;
57295;SDS011;43146;50.976;18.216;2022-12-18T09:24:22;50.40;;;16.00;;
57295;SDS011;43146;50.976;18.216;2022-12-18T09:26:48;53.50;;;17.30;;
57295;SDS011;43146;50.976;18.216;2022-12-18T09:29:14;39.90;;;13.20;;
57295;SDS011;43146;50.976;18.216;2022-12-18T09:31:40;48.20;;;16.30;;
57295;SDS011;43146;50.976;18.216;2022-12-18T09:34:06;49.90;;;18.50;;
57295;SDS011;43146;50.976;18.216;2022-12-18T09:36:32;53.40;;;20.00;;
57295;SDS011;43146;50.976;18.216;2022-12-18T09:38:58;50.50;;;19.10;;
57295;SDS011;43146;50.976;18.216;2022-12-18T09:44:25;50.80;;;16.80;;
57295;SDS011;43146;50.976;18.216;2022-12-18T09:46:55;47.20;;;18.10;;
57295;SDS011;43146;50.976;18.216;2022-12-18T09:49:39;43.30;;;16.10;;
57295;SDS011;43146;50.976;18.216;2022-12-18T09:52:27;50.60;;;15.30;;
57295;SDS011;43146;50.976;18.216;2022-12-18T09:55:00;48.50;;;15.70;;
57295;SDS011;43146;50.976;18.216;2022-12-18T09:57:34;48.20;;;15.30;;
57295;SDS011;43146;50.976;18.216;2022-12-18T10:00:14;54.90;;;17.70;;
57295;SDS011;43146;50.976;18.216;2022-12-18T10:02:43;40.50;;;14.90;;
57295;SDS011;43146;50.976;18.216;2022-12-18T10:05:24;45.50;;;14.50;;
57295;SDS011;43146;50.976;18.216;2022-12-18T10:08:04;48.10;;;16.90;;
57295;SDS011;43146;50.976;18.216;2022-12-18T10:18:39;43.70;;;18.90;;
57295;SDS011;43146;50.976;18.216;2022-12-18T10:21:10;43.10;;;17.50;;
57295;SDS011;43146;50.976;18.216;2022-12-18T10:26:47;48.40;;;17.30;;
57295;SDS011;43146;50.976;18.216;2022-12-18T10:29:13;47.80;;;17.50;;
57295;SDS011;43146;50.976;18.216;2022-12-18T10:31:40;47.00;;;16.20;;
57295;SDS011;43146;50.976;18.216;2022-12-18T10:34:10;49.10;;;18.60;;
57295;SDS011;43146;50.976;18.216;2022-12-18T10:36:36;49.60;;;18.40;;
57295;SDS011;43146;50.976;18.216;2022-12-18T10:39:22;44.10;;;16.50;;
57295;SDS011;43146;50.976;18.216;2022-12-18T10:41:50;81.00;;;31.70;;
57295;SDS011;43146;50.976;18.216;2022-12-18T10:44:17;55.90;;;19.30;;
57295;SDS011;43146;50.976;18.216;2022-12-18T10:46:51;179.20;;;56.70;;
57295;SDS011;43146;50.976;18.216;2022-12-18T10:49:22;247.70;;;77.10;;
57295;SDS011;43146;50.976;18.216;2022-12-18T10:51:49;167.80;;;54.90;;
57295;SDS011;43146;50.976;18.216;2022-12-18T10:54:16;144.20;;;47.50;;
57295;SDS011;43146;50.976;18.216;2022-12-18T10:56:44;70.70;;;25.00;;
57295;SDS011;43146;50.976;18.216;2022-12-18T10:59:14;232.70;;;72.60;;
57295;SDS011;43146;50.976;18.216;2022-12-18T11:06:55;57.60;;;21.00;;
57295;SDS011;43146;50.976;18.216;2022-12-18T11:11:58;64.60;;;31.60;;
57295;SDS011;43146;50.976;18.216;2022-12-18T11:14:27;52.10;;;23.70;;
57295;SDS011;43146;50.976;18.216;2022-12-18T11:16:58;48.30;;;18.20;;
57295;SDS011;43146;50.976;18.216;2022-12-18T11:21:50;52.00;;;19.30;;
57295;SDS011;43146;50.976;18.216;2022-12-18T11:24:19;55.10;;;20.30;;
57295;SDS011;43146;50.976;18.216;2022-12-18T11:26:45;49.40;;;18.10;;
57295;SDS011;43146;50.976;18.216;2022-12-18T11:29:15;51.00;;;17.70;;
57295;SDS011;43146;50.976;18.216;2022-12-18T11:31:42;51.70;;;18.40;;
57295;SDS011;43146;50.976;18.216;2022-12-18T11:36:46;48.60;;;18.40;;
57295;SDS011;43146;50.976;18.216;2022-12-18T11:39:15;46.00;;;16.50;;
57295;SDS011;43146;50.976;18.216;2022-12-18T11:41:47;47.80;;;16.70;;
57295;SDS011;43146;50.976;18.216;2022-12-18T11:50:12;53.40;;;19.80;;
57295;SDS011;43146;50.976;18.216;2022-12-18T11:52:41;51.80;;;20.40;;
57295;SDS011;43146;50.976;18.216;2022-12-18T11:55:10;51.60;;;18.50;;
57295;SDS011;43146;50.976;18.216;2022-12-18T11:57:41;48.40;;;17.20;;
57295;SDS011;43146;50.976;18.216;2022-12-18T12:03:11;57.60;;;20.20;;
57295;SDS011;43146;50.976;18.216;2022-12-18T12:05:59;62.90;;;21.30;;
57295;SDS011;43146;50.976;18.216;2022-12-18T12:18:56;63.00;;;21.80;;
57295;SDS011;43146;50.976;18.216;2022-12-18T12:21:42;67.50;;;23.90;;
57295;SDS011;43146;50.976;18.216;2022-12-18T12:35:15;82.90;;;30.40;;
57295;SDS011;43146;50.976;18.216;2022-12-18T12:40:42;76.50;;;26.20;;
57295;SDS011;43146;50.976;18.216;2022-12-18T12:43:42;136.80;;;53.30;;
57295;SDS011;43146;50.976;18.216;2022-12-18T12:46:19;82.50;;;28.10;;
57295;SDS011;43146;50.976;18.216;2022-12-18T12:48:47;76.40;;;26.70;;
57295;SDS011;43146;50.976;18.216;2022-12-18T12:51:16;113.10;;;41.80;;
57295;SDS011;43146;50.976;18.216;2022-12-18T12:53:44;69.50;;;25.40;;
57295;SDS011;43146;50.976;18.216;2022-12-18T12:56:11;76.30;;;24.40;;
57295;SDS011;43146;50.976;18.216;2022-12-18T13:01:19;85.00;;;27.10;;
57295;SDS011;43146;50.976;18.216;2022-12-18T13:06:28;93.90;;;33.30;;
57295;SDS011;43146;50.976;18.216;2022-12-18T13:09:13;95.20;;;30.50;;
57295;SDS011;43146;50.976;18.216;2022-12-18T13:11:40;121.60;;;36.60;;
57295;SDS011;43146;50.976;18.216;2022-12-18T13:14:32;81.40;;;27.60;;
57295;SDS011;43146;50.976;18.216;2022-12-18T13:20:02;90.80;;;27.00;;
57295;SDS011;43146;50.976;18.216;2022-12-18T13:28:01;205.90;;;76.70;;
57295;SDS011;43146;50.976;18.216;2022-12-18T13:41:03;278.70;;;88.70;;
57295;SDS011;43146;50.976;18.216;2022-12-18T13:43:41;113.30;;;32.90;;
57295;SDS011;43146;50.976;18.216;2022-12-18T13:46:19;78.70;;;24.20;;
57295;SDS011;43146;50.976;18.216;2022-12-18T13:51:33;82.50;;;26.70;;
57295;SDS011;43146;50.976;18.216;2022-12-18T13:54:05;157.10;;;59.60;;
57295;SDS011;43146;50.976;18.216;2022-12-18T13:56:42;72.40;;;23.60;;
57295;SDS011;43146;50.976;18.216;2022-12-18T13:59:22;172.90;;;77.60;;
57295;SDS011;43146;50.976;18.216;2022-12-18T14:01:53;84.70;;;26.10;;
57295;SDS011;43146;50.976;18.216;2022-12-18T14:04:23;77.80;;;24.20;;
57295;SDS011;43146;50.976;18.216;2022-12-18T14:06:57;62.30;;;20.90;;
57295;SDS011;43146;50.976;18.216;2022-12-18T14:09:36;65.10;;;20.00;;
57295;SDS011;43146;50.976;18.216;2022-12-18T14:12:14;118.90;;;31.80;;
57295;SDS011;43146;50.976;18.216;2022-12-18T14:15:09;389.50;;;166.60;;
57295;SDS011;43146;50.976;18.216;2022-12-18T14:18:02;126.80;;;34.00;;
57295;SDS011;43146;50.976;18.216;2022-12-18T14:20:39;451.10;;;143.00;;
57295;SDS011;43146;50.976;18.216;2022-12-18T14:23:24;366.70;;;136.90;;
57295;SDS011;43146;50.976;18.216;2022-12-18T14:25:55;110.20;;;32.40;;
57295;SDS011;43146;50.976;18.216;2022-12-18T14:28:20;546.80;;;258.80;;
57295;SDS011;43146;50.976;18.216;2022-12-18T14:30:47;260.30;;;110.70;;
57295;SDS011;43146;50.976;18.216;2022-12-18T14:33:17;160.40;;;59.80;;
57295;SDS011;43146;50.976;18.216;2022-12-18T14:35:52;341.60;;;123.80;;
57295;SDS011;43146;50.976;18.216;2022-12-18T14:41:02;132.00;;;43.40;;
57295;SDS011;43146;50.976;18.216;2022-12-18T14:43:31;133.50;;;35.10;;
57295;SDS011;43146;50.976;18.216;2022-12-18T14:45:58;126.00;;;38.30;;
57295;SDS011;43146;50.976;18.216;2022-12-18T14:51:02;90.80;;;32.40;;
57295;SDS011;43146;50.976;18.216;2022-12-18T14:53:41;79.20;;;27.90;;
57295;SDS011;43146;50.976;18.216;2022-12-18T14:56:15;92.40;;;34.30;;
57295;SDS011;43146;50.976;18.216;2022-12-18T14:58:44;120.80;;;44.20;;
57295;SDS011;43146;50.976;18.216;2022-12-18T15:01:17;213.50;;;67.70;;
57295;SDS011;43146;50.976;18.216;2022-12-18T15:03:48;236.40;;;79.50;;
57295;SDS011;43146;50.976;18.216;2022-12-18T15:06:33;329.80;;;101.30;;
57295;SDS011;43146;50.976;18.216;2022-12-18T15:09:03;203.70;;;67.60;;
57295;SDS011;43146;50.976;18.216;2022-12-18T15:11:46;167.20;;;49.00;;
57295;SDS011;43146;50.976;18.216;2022-12-18T15:20:00;434.10;;;82.50;;
57295;SDS011;43146;50.976;18.216;2022-12-18T15:22:29;273.90;;;64.50;;
57295;SDS011;43146;50.976;18.216;2022-12-18T15:24:57;451.30;;;154.20;;
57295;SDS011;43146;50.976;18.216;2022-12-18T15:27:28;137.80;;;34.20;;
57295;SDS011;43146;50.976;18.216;2022-12-18T15:30:02;181.00;;;66.60;;
57295;SDS011;43146;50.976;18.216;2022-12-18T15:32:34;168.30;;;69.00;;
57295;SDS011;43146;50.976;18.216;2022-12-18T15:37:33;152.10;;;45.60;;
57295;SDS011;43146;50.976;18.216;2022-12-18T15:39:59;250.00;;;78.50;;
57295;SDS011;43146;50.976;18.216;2022-12-18T15:42:24;381.30;;;127.80;;
57295;SDS011;43146;50.976;18.216;2022-12-18T15:45:11;227.50;;;75.00;;
57295;SDS011;43146;50.976;18.216;2022-12-18T15:47:38;193.00;;;64.80;;
57295;SDS011;43146;50.976;18.216;2022-12-18T15:50:04;184.20;;;48.00;;
57295;SDS011;43146;50.976;18.216;2022-12-18T15:52:32;369.00;;;149.70;;
57295;SDS011;43146;50.976;18.216;2022-12-18T15:55:05;296.30;;;89.10;;
57295;SDS011;43146;50.976;18.216;2022-12-18T15:57:54;119.20;;;33.20;;
57295;SDS011;43146;50.976;18.216;2022-12-18T16:00:20;125.60;;;41.10;;
57295;SDS011;43146;50.976;18.216;2022-12-18T16:02:48;101.60;;;33.60;;
57295;SDS011;43146;50.976;18.216;2022-12-18T16:05:15;336.30;;;111.40;;
57295;SDS011;43146;50.976;18.216;2022-12-18T16:07:43;255.10;;;80.30;;
57295;SDS011;43146;50.976;18.216;2022-12-18T16:10:09;128.80;;;39.80;;
57295;SDS011;43146;50.976;18.216;2022-12-18T16:12:35;318.70;;;99.60;;
57295;SDS011;43146;50.976;18.216;2022-12-18T16:15:02;175.20;;;53.60;;
57295;SDS011;43146;50.976;18.216;2022-12-18T16:17:30;206.60;;;66.10;;
57295;SDS011;43146;50.976;18.216;2022-12-18T16:19:55;303.10;;;101.30;;
57295;SDS011;43146;50.976;18.216;2022-12-18T16:22:22;201.30;;;68.90;;
57295;SDS011;43146;50.976;18.216;2022-12-18T16:24:50;148.00;;;43.60;;
57295;SDS011;43146;50.976;18.216;2022-12-18T16:27:17;161.00;;;51.50;;
57295;SDS011;43146;50.976;18.216;2022-12-18T16:29:43;140.90;;;34.50;;
57295;SDS011;43146;50.976;18.216;2022-12-18T16:32:16;101.00;;;31.30;;
57295;SDS011;43146;50.976;18.216;2022-12-18T16:37:11;93.70;;;28.70;;